USAV Winfield Scott — ADTJ — position and weather

sailwx.info

Track history (hours):
 
Tides and Currents Weather Stations Pressure Air Temp Water Temp Dewpoint Dewpoint Depression Visibility Wind Speed Wind Dir Waves Ship Positions

USAV Winfield Scott

Last reported at 2017-Dec-20 18:15 UTC. Time now 2018-Jan-19 09:05 UTC.
Position N 36°50' W 076°17'.
Warning: this ship's position is 29 days out of date.

Length 11 m; draft 6 m.

Type: Military. MMSI: 368705000.

Date/timePositionNaut miles runAvg speedWind from/ knotsBaromVisibWave heightAir tempDewpointWater temp
2017-Dec-20 18:15N 36°50' W 076°17'1 5.7
2017-Dec-20 18:00N 36°51' W 076°18'510.2
2017-Dec-20 17:30N 36°56' W 076°20'8 9.3
2017-Dec-20 16:35N 36°60' W 076°11'1 8.9
2017-Dec-20 16:30N 36°59' W 076°10'5 6.6
2017-Dec-20 15:44N 37°00' W 076°16'5 9.0
2017-Dec-20 15:13N 36°57' W 076°20'1 5.8
2017-Dec-20 15:00N 36°56' W 076°20'4 8.7
2017-Dec-20 14:30N 36°52' W 076°19'2 3.0
2017-Dec-20 13:42N 36°50' W 076°17'0 0.0
2017-Dec-20 13:27N 36°50' W 076°17'0 0.0
2017-Dec-19 18:37N 36°50' W 076°17'0 0.0
2017-Dec-19 18:30N 36°50' W 076°17'1 2.1
2017-Dec-19 18:00N 36°51' W 076°18'4 8.9
2017-Dec-19 17:30N 36°55' W 076°20'2 1.9
2017-Dec-19 16:14N 36°57' W 076°21'0 0.3
2017-Dec-19 15:48N 36°57' W 076°21'0 0.4
2017-Dec-19 15:30N 36°57' W 076°21'2 3.9
2017-Dec-19 14:58N 36°55' W 076°20'4 7.8
2017-Dec-19 14:30N 36°52' W 076°19'2 4.8
2017-Dec-19 14:00N 36°50' W 076°17'0 0.2
2017-Dec-19 13:30N 36°50' W 076°17'0 0.0
2017-Dec-19 12:57N 36°50' W 076°17'0 0.0
2017-Dec-19 12:30N 36°50' W 076°17'0 0.0
2017-Dec-18 23:39N 36°50' W 076°17'0 0.0
2017-Dec-18 23:30N 36°50' W 076°17'0 0.0
2017-Dec-18 23:00N 36°50' W 076°17'0 0.0
2017-Dec-18 22:30N 36°50' W 076°17'0 0.0
2017-Dec-18 22:00N 36°50' W 076°17'  
2017-Dec-14 16:23N 36°50' W 076°17'0 0.0
2017-Dec-14 15:53N 36°50' W 076°17'0 0.0
2017-Dec-14 14:59N 36°50' W 076°17'0 0.0
2017-Dec-14 14:29N 36°50' W 076°17'0 0.0
2017-Dec-14 13:59N 36°50' W 076°17'0 0.0
2017-Dec-14 13:29N 36°50' W 076°17'0 0.0
2017-Dec-14 12:59N 36°50' W 076°17'0 0.0
2017-Dec-14 12:29N 36°50' W 076°17'  
2017-Dec-11 19:51N 36°50' W 076°17'0 0.0
2017-Dec-11 19:27N 36°50' W 076°17'0 0.0
2017-Dec-11 18:57N 36°50' W 076°17'0 0.0
2017-Dec-11 18:30N 36°50' W 076°17'0 0.0
2017-Dec-11 18:00N 36°50' W 076°17'0 0.0
2017-Dec-11 17:30N 36°50' W 076°17'0 0.0
2017-Dec-11 17:00N 36°50' W 076°17'0 0.0
2017-Dec-11 16:30N 36°50' W 076°17'0 0.0
2017-Dec-11 16:00N 36°50' W 076°17'0 0.0
2017-Dec-11 15:30N 36°50' W 076°17'0 0.0
2017-Dec-11 14:57N 36°50' W 076°17'0 0.0
2017-Dec-11 14:30N 36°50' W 076°17'0 0.0
2017-Dec-11 14:00N 36°50' W 076°17'0 0.0
2017-Dec-11 13:30N 36°50' W 076°17'0 0.0
2017-Dec-11 13:00N 36°50' W 076°17'  
Track history (hours):
 
Tides and Currents Weather Stations Pressure Air Temp Water Temp Dewpoint Dewpoint Depression Visibility Wind Speed Wind Dir Waves Ship Positions

USAV Winfield Scott

Last reported at 2017-Dec-20 18:15 UTC. Time now 2018-Jan-19 09:05 UTC.
Position N 36°50' W 076°17'.
Warning: this ship's position is 29 days out of date.

Length 11 m; draft 6 m.

Type: Military. MMSI: 368705000.

Date/timePositionNaut miles runAvg speedWind from/ knotsBaromVisibWave heightAir tempDewpointWater temp
2017-Dec-20 18:15N 36°50' W 076°17'1 5.7
2017-Dec-20 18:00N 36°51' W 076°18'510.2
2017-Dec-20 17:30N 36°56' W 076°20'8 9.3
2017-Dec-20 16:35N 36°60' W 076°11'1 8.9
2017-Dec-20 16:30N 36°59' W 076°10'5 6.6
2017-Dec-20 15:44N 37°00' W 076°16'5 9.0
2017-Dec-20 15:13N 36°57' W 076°20'1 5.8
2017-Dec-20 15:00N 36°56' W 076°20'4 8.7
2017-Dec-20 14:30N 36°52' W 076°19'2 3.0
2017-Dec-20 13:42N 36°50' W 076°17'0 0.0
2017-Dec-20 13:27N 36°50' W 076°17'0 0.0
2017-Dec-19 18:37N 36°50' W 076°17'0 0.0
2017-Dec-19 18:30N 36°50' W 076°17'1 2.1
2017-Dec-19 18:00N 36°51' W 076°18'4 8.9
2017-Dec-19 17:30N 36°55' W 076°20'2 1.9
2017-Dec-19 16:14N 36°57' W 076°21'0 0.3
2017-Dec-19 15:48N 36°57' W 076°21'0 0.4
2017-Dec-19 15:30N 36°57' W 076°21'2 3.9
2017-Dec-19 14:58N 36°55' W 076°20'4 7.8
2017-Dec-19 14:30N 36°52' W 076°19'2 4.8
2017-Dec-19 14:00N 36°50' W 076°17'0 0.2
2017-Dec-19 13:30N 36°50' W 076°17'0 0.0
2017-Dec-19 12:57N 36°50' W 076°17'0 0.0
2017-Dec-19 12:30N 36°50' W 076°17'0 0.0
2017-Dec-18 23:39N 36°50' W 076°17'0 0.0
2017-Dec-18 23:30N 36°50' W 076°17'0 0.0
2017-Dec-18 23:00N 36°50' W 076°17'0 0.0
2017-Dec-18 22:30N 36°50' W 076°17'0 0.0
2017-Dec-18 22:00N 36°50' W 076°17'  
2017-Dec-14 16:23N 36°50' W 076°17'0 0.0
2017-Dec-14 15:53N 36°50' W 076°17'0 0.0
2017-Dec-14 14:59N 36°50' W 076°17'0 0.0
2017-Dec-14 14:29N 36°50' W 076°17'0 0.0
2017-Dec-14 13:59N 36°50' W 076°17'0 0.0
2017-Dec-14 13:29N 36°50' W 076°17'0 0.0
2017-Dec-14 12:59N 36°50' W 076°17'0 0.0
2017-Dec-14 12:29N 36°50' W 076°17'  
2017-Dec-11 19:51N 36°50' W 076°17'0 0.0
2017-Dec-11 19:27N 36°50' W 076°17'0 0.0
2017-Dec-11 18:57N 36°50' W 076°17'0 0.0
2017-Dec-11 18:30N 36°50' W 076°17'0 0.0
2017-Dec-11 18:00N 36°50' W 076°17'0 0.0
2017-Dec-11 17:30N 36°50' W 076°17'0 0.0
2017-Dec-11 17:00N 36°50' W 076°17'0 0.0
2017-Dec-11 16:30N 36°50' W 076°17'0 0.0
2017-Dec-11 16:00N 36°50' W 076°17'0 0.0
2017-Dec-11 15:30N 36°50' W 076°17'0 0.0
2017-Dec-11 14:57N 36°50' W 076°17'0 0.0
2017-Dec-11 14:30N 36°50' W 076°17'0 0.0
2017-Dec-11 14:00N 36°50' W 076°17'0 0.0
2017-Dec-11 13:30N 36°50' W 076°17'0 0.0
2017-Dec-11 13:00N 36°50' W 076°17'  

Dump ship's entire track history